createdAt,value
2018-10-12T00:00:02.458Z,0
2018-10-12T00:01:12.138Z,0
2018-10-12T00:02:21.815Z,0
2018-10-12T00:03:31.492Z,0
2018-10-12T00:04:40.934Z,0
2018-10-12T00:05:50.112Z,0
2018-10-12T00:06:59.878Z,0
2018-10-12T00:08:09.065Z,0
2018-10-12T00:09:18.504Z,0
2018-10-12T00:10:28.174Z,0
2018-10-12T00:11:37.326Z,0
2018-10-12T00:12:46.745Z,0
2018-10-12T00:13:55.941Z,0
2018-10-12T00:15:05.927Z,0
2018-10-12T00:16:15.084Z,0
2018-10-12T00:17:24.678Z,0
2018-10-12T00:18:34.119Z,0
2018-10-12T00:19:43.538Z,0
2018-10-12T00:20:52.953Z,0
2018-10-12T00:22:02.637Z,0
2018-10-12T00:23:11.815Z,0
2018-10-12T00:24:21.250Z,0
2018-10-12T00:25:30.153Z,0
2018-10-12T00:26:39.833Z,0
2018-10-12T00:27:49.533Z,0
2018-10-12T00:28:59.492Z,0
2018-10-12T00:30:09.193Z,0
2018-10-12T00:31:18.620Z,0
2018-10-12T00:32:28.305Z,0
2018-10-12T00:33:37.467Z,0
2018-10-12T00:34:46.872Z,0
2018-10-12T00:35:56.345Z,0
2018-10-12T00:37:05.774Z,0
2018-10-12T00:38:14.929Z,0
2018-10-12T00:39:24.866Z,0
2018-10-12T00:40:35.014Z,0
2018-10-12T00:41:44.201Z,0
2018-10-12T00:42:53.365Z,0
2018-10-12T00:44:03.043Z,0
2018-10-12T00:45:12.496Z,0
2018-10-12T00:46:21.664Z,0
2018-10-12T00:47:31.092Z,0
2018-10-12T00:48:40.770Z,0
2018-10-12T00:49:51.118Z,0
2018-10-12T00:51:00.175Z,0
2018-10-12T00:52:09.712Z,0
2018-10-12T00:53:19.660Z,0
2018-10-12T00:54:29.094Z,0
2018-10-12T00:55:38.232Z,0
2018-10-12T00:56:47.131Z,0
2018-10-12T00:57:56.555Z,0
2018-10-12T00:59:05.468Z,0
2018-10-12T01:00:14.878Z,0
2018-10-12T01:01:23.777Z,0
2018-10-12T01:02:33.202Z,0
2018-10-12T01:03:43.180Z,0
2018-10-12T01:04:51.812Z,0
2018-10-12T01:06:01.485Z,0
2018-10-12T01:07:11.446Z,0
2018-10-12T01:08:20.625Z,0
2018-10-12T01:09:30.052Z,0
2018-10-12T01:10:39.462Z,0
2018-10-12T01:11:48.108Z,0
2018-10-12T01:12:57.538Z,0
2018-10-12T01:14:06.699Z,0
2018-10-12T01:15:16.432Z,0
2018-10-12T01:16:25.883Z,0
2018-10-12T01:17:35.030Z,0
2018-10-12T01:18:44.188Z,0
2018-10-12T01:19:53.873Z,0
2018-10-12T01:21:03.142Z,0
2018-10-12T01:22:12.549Z,0
2018-10-12T01:23:22.293Z,0
2018-10-12T01:24:31.707Z,0
2018-10-12T01:25:41.129Z,0
2018-10-12T01:26:50.805Z,0
2018-10-12T01:27:59.969Z,0
2018-10-12T01:29:09.253Z,0
2018-10-12T01:30:18.505Z,0
2018-10-12T01:31:27.950Z,0
2018-10-12T01:32:37.644Z,0
2018-10-12T01:33:47.342Z,0
2018-10-12T01:34:57.264Z,0
2018-10-12T01:36:06.749Z,0
2018-10-12T01:37:16.444Z,0
2018-10-12T01:38:26.147Z,0
2018-10-12T01:39:36.093Z,0
2018-10-12T01:40:44.992Z,0
2018-10-12T01:41:54.686Z,0
2018-10-12T01:43:04.629Z,0
2018-10-12T01:44:13.799Z,0
2018-10-12T01:45:22.952Z,0
2018-10-12T01:46:32.381Z,0
2018-10-12T01:47:41.822Z,0
2018-10-12T01:48:51.239Z,0
2018-10-12T01:50:00.663Z,0
2018-10-12T01:51:10.092Z,0
2018-10-12T01:52:19.554Z,0
2018-10-12T01:53:29.313Z,0
2018-10-12T01:54:38.208Z,0
2018-10-12T01:55:47.636Z,0
2018-10-12T01:56:57.309Z,0
2018-10-12T01:58:06.226Z,0
2018-10-12T01:59:15.744Z,0
2018-10-12T02:00:24.899Z,0
2018-10-12T02:01:34.329Z,0
2018-10-12T02:02:44.000Z,0
2018-10-12T02:03:53.430Z,0
2018-10-12T02:05:03.368Z,0
2018-10-12T02:06:13.543Z,0
2018-10-12T02:07:22.982Z,0
2018-10-12T02:08:32.658Z,0
2018-10-12T02:09:42.134Z,0
2018-10-12T02:10:51.580Z,0
2018-10-12T02:12:01.254Z,0
2018-10-12T02:13:11.205Z,0
2018-10-12T02:14:20.410Z,0
2018-10-12T02:15:30.084Z,0
2018-10-12T02:16:39.251Z,0
2018-10-12T02:17:49.193Z,0
2018-10-12T02:18:58.360Z,0
2018-10-12T02:20:07.526Z,0
2018-10-12T02:21:17.216Z,0
2018-10-12T02:22:26.897Z,0
2018-10-12T02:23:36.340Z,0
2018-10-12T02:24:45.760Z,0
2018-10-12T02:25:55.697Z,0
2018-10-12T02:27:04.599Z,0
2018-10-12T02:28:14.563Z,0
2018-10-12T02:29:24.015Z,0
2018-10-12T02:30:33.181Z,0
2018-10-12T02:31:42.373Z,0
2018-10-12T02:32:51.788Z,0
2018-10-12T02:34:01.212Z,0
2018-10-12T02:35:10.635Z,0
2018-10-12T02:36:20.064Z,0
2018-10-12T02:37:29.444Z,0
2018-10-12T02:38:38.632Z,0
2018-10-12T02:39:48.029Z,0
2018-10-12T02:40:57.978Z,0
2018-10-12T02:42:07.931Z,0
2018-10-12T02:43:17.118Z,0
2018-10-12T02:44:26.829Z,0
2018-10-12T02:45:36.511Z,0
2018-10-12T02:46:46.199Z,0
2018-10-12T02:47:55.655Z,0
2018-10-12T02:49:04.832Z,0
2018-10-12T02:50:14.502Z,0
2018-10-12T02:51:23.930Z,0
2018-10-12T02:52:33.597Z,0
2018-10-12T02:53:42.764Z,0
2018-10-12T02:54:52.455Z,0
2018-10-12T02:56:02.188Z,0
2018-10-12T02:57:11.358Z,0
2018-10-12T02:58:20.828Z,0
2018-10-12T02:59:29.990Z,0
2018-10-12T03:00:39.428Z,0
2018-10-12T03:01:49.106Z,0
2018-10-12T03:02:58.795Z,0
2018-10-12T03:04:08.565Z,0
2018-10-12T03:05:17.552Z,0
2018-10-12T03:06:27.490Z,0
2018-10-12T03:07:36.917Z,0
2018-10-12T03:08:46.167Z,0
2018-10-12T03:09:55.898Z,0
2018-10-12T03:11:05.327Z,0
2018-10-12T03:12:15.029Z,0
2018-10-12T03:13:24.691Z,0
2018-10-12T03:14:34.118Z,0
2018-10-12T03:15:44.060Z,0
2018-10-12T03:16:54.019Z,0
2018-10-12T03:18:03.737Z,0
2018-10-12T03:19:13.402Z,0
2018-10-12T03:20:22.834Z,0
2018-10-12T03:21:32.796Z,0
2018-10-12T03:22:42.735Z,0
2018-10-12T03:23:51.893Z,0
2018-10-12T03:25:01.073Z,0
2018-10-12T03:26:10.502Z,0
2018-10-12T03:27:19.821Z,0
2018-10-12T03:28:29.015Z,0
2018-10-12T03:29:38.708Z,0
2018-10-12T03:30:48.393Z,0
2018-10-12T03:31:58.098Z,0
2018-10-12T03:33:07.569Z,0
2018-10-12T03:34:16.999Z,0
2018-10-12T03:35:26.569Z,0
2018-10-12T03:36:35.789Z,0
2018-10-12T03:37:44.702Z,0
2018-10-12T03:38:54.205Z,0
2018-10-12T03:40:03.365Z,0
2018-10-12T03:41:12.314Z,0
2018-10-12T03:42:21.790Z,0
2018-10-12T03:43:31.495Z,0
2018-10-12T03:44:40.673Z,0
2018-10-12T03:45:50.618Z,0
2018-10-12T03:46:59.793Z,0
2018-10-12T03:48:09.211Z,0
2018-10-12T03:49:18.638Z,0
2018-10-12T03:50:28.069Z,0
2018-10-12T03:51:37.506Z,0
2018-10-12T03:52:47.209Z,0
2018-10-12T03:53:56.629Z,0
2018-10-12T03:55:06.059Z,0
2018-10-12T03:56:15.780Z,0
2018-10-12T03:57:25.214Z,0
2018-10-12T03:58:34.783Z,0
2018-10-12T03:59:43.931Z,0
2018-10-12T04:00:53.661Z,0
2018-10-12T04:02:03.094Z,0
2018-10-12T04:03:12.593Z,0
2018-10-12T04:04:23.006Z,0
2018-10-12T04:05:32.590Z,0
2018-10-12T04:06:42.268Z,0
2018-10-12T04:07:51.430Z,0
2018-10-12T04:09:01.116Z,0
2018-10-12T04:10:10.312Z,0
2018-10-12T04:11:20.286Z,0
2018-10-12T04:12:29.849Z,0
2018-10-12T04:13:39.708Z,0
2018-10-12T04:14:49.396Z,0
2018-10-12T04:15:59.358Z,0
2018-10-12T04:17:08.815Z,0
2018-10-12T04:18:18.244Z,0
2018-10-12T04:19:27.415Z,0
2018-10-12T04:20:37.081Z,0
2018-10-12T04:21:46.774Z,0
2018-10-12T04:22:56.439Z,0
2018-10-12T04:24:05.650Z,0
2018-10-12T04:25:15.080Z,0
2018-10-12T04:26:24.532Z,0
2018-10-12T04:27:33.962Z,0
2018-10-12T04:28:43.424Z,0
2018-10-12T04:29:52.845Z,0
2018-10-12T04:31:02.791Z,0
2018-10-12T04:32:11.966Z,0
2018-10-12T04:33:21.428Z,0
2018-10-12T04:34:30.890Z,0
2018-10-12T04:35:40.589Z,0
2018-10-12T04:36:50.315Z,0
2018-10-12T04:37:59.755Z,0
2018-10-12T04:39:09.181Z,0
2018-10-12T04:40:19.323Z,0
2018-10-12T04:41:29.019Z,0
2018-10-12T04:42:39.014Z,0
2018-10-12T04:43:48.793Z,0
2018-10-12T04:44:58.226Z,0
2018-10-12T04:46:07.897Z,0
2018-10-12T04:47:17.824Z,0
2018-10-12T04:48:27.607Z,0
2018-10-12T04:49:37.054Z,0
2018-10-12T04:50:46.467Z,0
2018-10-12T04:51:55.895Z,0
2018-10-12T04:53:05.630Z,0
2018-10-12T04:54:15.056Z,0
2018-10-12T04:55:24.488Z,0
2018-10-12T04:56:33.949Z,0
2018-10-12T04:57:42.864Z,0
2018-10-12T04:58:52.926Z,0
2018-10-12T05:00:02.335Z,0
2018-10-12T05:01:12.432Z,0
2018-10-12T05:02:21.813Z,0
2018-10-12T05:03:31.743Z,0
2018-10-12T05:04:40.643Z,0
2018-10-12T05:05:50.317Z,0
2018-10-12T05:06:59.474Z,0
2018-10-12T05:08:08.638Z,0
2018-10-12T05:09:18.362Z,0
2018-10-12T05:10:27.528Z,0
2018-10-12T05:11:37.474Z,0
2018-10-12T05:12:46.367Z,0
2018-10-12T05:13:55.780Z,0
2018-10-12T05:15:04.690Z,0
2018-10-12T05:16:13.587Z,0
2018-10-12T05:17:23.054Z,0
2018-10-12T05:18:32.788Z,0
2018-10-12T05:19:42.566Z,0
2018-10-12T05:20:51.994Z,0
2018-10-12T05:22:02.460Z,0
2018-10-12T05:23:12.384Z,0
2018-10-12T05:24:21.837Z,0
2018-10-12T05:25:31.031Z,0
2018-10-12T05:26:40.481Z,0
2018-10-12T05:27:49.906Z,0
2018-10-12T05:28:59.756Z,0
2018-10-12T05:30:09.485Z,0
2018-10-12T05:31:19.133Z,0
2018-10-12T05:32:28.818Z,0
2018-10-12T05:33:37.970Z,0
2018-10-12T05:34:47.386Z,0
2018-10-12T05:35:56.747Z,0
2018-10-12T05:37:06.159Z,0
2018-10-12T05:38:15.578Z,0
2018-10-12T05:39:24.741Z,0
2018-10-12T05:40:33.676Z,0
2018-10-12T05:41:43.116Z,0
2018-10-12T05:42:53.269Z,0
2018-10-12T05:44:03.199Z,0
2018-10-12T05:45:12.870Z,0
2018-10-12T05:46:22.307Z,0
2018-10-12T05:47:31.465Z,0
2018-10-12T05:48:41.302Z,0
2018-10-12T05:49:51.068Z,0
2018-10-12T05:51:00.493Z,0
2018-10-12T05:52:09.976Z,0
2018-10-12T05:53:19.724Z,0
2018-10-12T05:54:28.885Z,0
2018-10-12T05:55:38.929Z,0
2018-10-12T05:56:48.406Z,0
2018-10-12T05:57:57.602Z,0
2018-10-12T05:59:07.288Z,0
2018-10-12T06:00:16.700Z,0
2018-10-12T06:01:26.864Z,0
2018-10-12T06:02:36.414Z,0
2018-10-12T06:03:45.918Z,0
2018-10-12T06:04:55.341Z,0
2018-10-12T06:06:05.301Z,0
2018-10-12T06:07:15.022Z,0
2018-10-12T06:08:24.717Z,0
2018-10-12T06:09:34.905Z,0
2018-10-12T06:10:44.883Z,0
2018-10-12T06:11:54.740Z,0
2018-10-12T06:13:03.922Z,0
2018-10-12T06:14:13.390Z,0
2018-10-12T06:15:23.192Z,0
2018-10-12T06:16:32.780Z,0
2018-10-12T06:17:42.740Z,4
2018-10-12T06:18:52.435Z,4
2018-10-12T06:20:02.108Z,4
2018-10-12T06:21:11.267Z,4
2018-10-12T06:22:20.180Z,4
2018-10-12T06:23:29.364Z,4
2018-10-12T06:24:38.920Z,4
2018-10-12T06:25:48.096Z,4
2018-10-12T06:26:57.777Z,4
2018-10-12T06:28:07.578Z,4
2018-10-12T06:29:16.984Z,4
2018-10-12T06:30:26.159Z,0
2018-10-12T06:31:35.335Z,0
2018-10-12T06:32:44.856Z,0
2018-10-12T06:33:54.957Z,0
2018-10-12T06:35:04.386Z,0
2018-10-12T06:36:14.110Z,0
2018-10-12T06:37:23.866Z,4
2018-10-12T06:38:33.026Z,4
2018-10-12T06:39:42.471Z,4
2018-10-12T06:40:52.663Z,4
2018-10-12T06:42:02.332Z,4
2018-10-12T06:43:11.776Z,4
2018-10-12T06:44:21.789Z,4
2018-10-12T06:45:31.531Z,4
2018-10-12T06:46:41.687Z,4
2018-10-12T06:47:51.907Z,4
2018-10-12T06:49:01.838Z,0
2018-10-12T06:50:11.013Z,0
2018-10-12T06:51:20.967Z,0
2018-10-12T06:52:30.385Z,0
2018-10-12T06:53:39.826Z,0
2018-10-12T06:54:48.800Z,4
2018-10-12T06:55:58.222Z,4
2018-10-12T06:57:07.486Z,4
2018-10-12T06:58:16.920Z,4
2018-10-12T06:59:26.091Z,4
2018-10-12T07:00:35.271Z,4
2018-10-12T07:01:45.018Z,0
2018-10-12T07:02:54.720Z,4
2018-10-12T07:04:04.162Z,4
2018-10-12T07:05:13.135Z,4
2018-10-12T07:06:22.847Z,4
2018-10-12T07:07:32.031Z,4
2018-10-12T07:08:41.194Z,4
2018-10-12T07:09:51.153Z,4
2018-10-12T07:11:00.896Z,0
2018-10-12T07:12:10.607Z,4
2018-10-12T07:13:19.828Z,4
2018-10-12T07:14:29.330Z,4
2018-10-12T07:15:38.543Z,4
2018-10-12T07:16:47.978Z,4
2018-10-12T07:17:56.886Z,4
2018-10-12T07:19:06.614Z,4
2018-10-12T07:20:15.533Z,4
2018-10-12T07:21:25.898Z,4
2018-10-12T07:22:35.570Z,4
2018-10-12T07:23:45.009Z,4
2018-10-12T07:24:54.193Z,4
2018-10-12T07:26:04.521Z,4
2018-10-12T07:27:14.333Z,8
2018-10-12T07:28:23.535Z,8
2018-10-12T07:29:33.235Z,8
2018-10-12T07:30:42.674Z,8
2018-10-12T07:31:51.964Z,4
2018-10-12T07:33:01.402Z,4
2018-10-12T07:34:11.085Z,4
2018-10-12T07:35:19.999Z,8
2018-10-12T07:36:28.677Z,4
2018-10-12T07:37:37.752Z,4
2018-10-12T07:38:47.630Z,4
2018-10-12T07:39:57.569Z,4
2018-10-12T07:41:06.765Z,4
2018-10-12T07:42:16.036Z,4
2018-10-12T07:43:26.193Z,4
2018-10-12T07:44:35.952Z,8
2018-10-12T07:45:45.658Z,8
2018-10-12T07:46:54.636Z,8
2018-10-12T07:48:04.160Z,8
2018-10-12T07:49:13.729Z,8
2018-10-12T07:50:23.422Z,8
2018-10-12T07:51:33.520Z,8
2018-10-12T07:52:42.762Z,4
2018-10-12T07:53:52.522Z,8
2018-10-12T07:55:02.527Z,8
2018-10-12T07:56:11.460Z,8
2018-10-12T07:57:20.907Z,4
2018-10-12T07:58:30.411Z,4
2018-10-12T07:59:39.860Z,12
2018-10-12T08:00:49.945Z,8
2018-10-12T08:01:59.653Z,8
2018-10-12T08:03:09.364Z,8
2018-10-12T08:04:19.074Z,8
2018-10-12T08:05:28.821Z,8
2018-10-12T08:06:39.116Z,8
2018-10-12T08:07:49.024Z,8
2018-10-12T08:08:58.996Z,8
2018-10-12T08:10:08.505Z,8
2018-10-12T08:11:18.219Z,8
2018-10-12T08:12:27.914Z,12
2018-10-12T08:13:37.780Z,12
2018-10-12T08:14:47.903Z,4
2018-10-12T08:15:57.110Z,12
2018-10-12T08:17:06.083Z,4
2018-10-12T08:18:16.068Z,8
2018-10-12T08:19:25.276Z,8
2018-10-12T08:20:34.377Z,8
2018-10-12T08:21:43.840Z,8
2018-10-12T08:22:53.343Z,8
2018-10-12T08:24:03.287Z,8
2018-10-12T08:25:13.044Z,8
2018-10-12T08:26:22.500Z,8
2018-10-12T08:27:32.214Z,4
2018-10-12T08:28:41.918Z,4
2018-10-12T08:29:50.832Z,8
2018-10-12T08:31:00.031Z,8
2018-10-12T08:32:09.482Z,8
2018-10-12T08:33:18.911Z,4
2018-10-12T08:34:27.870Z,4
2018-10-12T08:35:37.380Z,4
2018-10-12T08:36:47.359Z,4
2018-10-12T08:37:56.787Z,8
2018-10-12T08:39:06.513Z,8
2018-10-12T08:40:15.683Z,8
2018-10-12T08:41:25.128Z,8
2018-10-12T08:42:34.577Z,8
2018-10-12T08:43:43.992Z,8
2018-10-12T08:44:52.930Z,12
2018-10-12T08:46:02.105Z,8
2018-10-12T08:47:11.552Z,8
2018-10-12T08:48:20.751Z,8
2018-10-12T08:49:30.225Z,8
2018-10-12T08:50:39.938Z,8
2018-10-12T08:51:49.134Z,8
2018-10-12T08:52:58.820Z,8
2018-10-12T08:54:08.528Z,8
2018-10-12T08:55:17.766Z,8
2018-10-12T08:56:26.882Z,8
2018-10-12T08:57:36.666Z,8
2018-10-12T08:58:46.629Z,8
2018-10-12T08:59:55.799Z,8
2018-10-12T09:01:05.652Z,8
2018-10-12T09:02:15.433Z,8
2018-10-12T09:03:24.904Z,8
2018-10-12T09:04:34.608Z,8
2018-10-12T09:05:44.068Z,8
2018-10-12T09:06:53.774Z,8
2018-10-12T09:08:03.199Z,8
2018-10-12T09:09:12.401Z,8
2018-10-12T09:10:22.413Z,12
2018-10-12T09:11:32.114Z,8
2018-10-12T09:12:42.479Z,12
2018-10-12T09:13:51.667Z,12
2018-10-12T09:15:00.327Z,8
2018-10-12T09:16:09.594Z,8
2018-10-12T09:17:19.092Z,8
2018-10-12T09:18:28.590Z,8
2018-10-12T09:19:37.808Z,8
2018-10-12T09:20:47.588Z,8
2018-10-12T09:21:57.535Z,12
2018-10-12T09:23:07.261Z,8
2018-10-12T09:24:16.187Z,12
2018-10-12T09:25:25.355Z,8
2018-10-12T09:26:35.050Z,8
2018-10-12T09:27:45.011Z,8
2018-10-12T09:28:54.437Z,8
2018-10-12T09:30:04.440Z,8
2018-10-12T09:31:14.242Z,8
2018-10-12T09:32:23.466Z,8
2018-10-12T09:33:32.899Z,8
2018-10-12T09:34:42.356Z,12
2018-10-12T09:35:51.805Z,8
2018-10-12T09:37:02.196Z,8
2018-10-12T09:38:12.480Z,12
2018-10-12T09:39:21.930Z,12
2018-10-12T09:40:31.867Z,16
2018-10-12T09:41:40.992Z,20
2018-10-12T09:42:50.193Z,12
2018-10-12T09:43:59.497Z,16
2018-10-12T09:45:09.210Z,12
2018-10-12T09:46:18.649Z,12
2018-10-12T09:47:27.847Z,12
2018-10-12T09:48:37.303Z,16
2018-10-12T09:49:47.003Z,32
2018-10-12T09:50:56.589Z,32
2018-10-12T09:52:06.047Z,32
2018-10-12T09:53:15.472Z,32
2018-10-12T09:54:25.184Z,28
2018-10-12T09:55:34.904Z,28
2018-10-12T09:56:44.345Z,28
2018-10-12T09:57:54.059Z,28
2018-10-12T09:59:03.240Z,8
2018-10-12T10:00:13.202Z,24
2018-10-12T10:01:22.912Z,8
2018-10-12T10:02:32.507Z,28
2018-10-12T10:03:42.450Z,28
2018-10-12T10:04:52.434Z,28
2018-10-12T10:06:01.640Z,24
2018-10-12T10:07:11.595Z,24
2018-10-12T10:08:22.345Z,24
2018-10-12T10:09:32.355Z,24
2018-10-12T10:10:41.530Z,16
2018-10-12T10:11:50.963Z,20
2018-10-12T10:13:00.133Z,20
2018-10-12T10:14:09.321Z,24
2018-10-12T10:15:19.381Z,24
2018-10-12T10:16:28.839Z,24
2018-10-12T10:17:38.783Z,24
2018-10-12T10:18:48.722Z,20
2018-10-12T10:19:57.955Z,20
2018-10-12T10:21:07.219Z,24
2018-10-12T10:22:16.452Z,24
2018-10-12T10:23:26.489Z,24
2018-10-12T10:24:35.663Z,24
2018-10-12T10:25:45.597Z,20
2018-10-12T10:26:56.081Z,24
2018-10-12T10:28:06.073Z,20
2018-10-12T10:29:15.864Z,20
2018-10-12T10:30:26.119Z,20
2018-10-12T10:31:35.328Z,20
2018-10-12T10:32:45.011Z,24
2018-10-12T10:33:54.506Z,20
2018-10-12T10:35:04.219Z,20
2018-10-12T10:36:13.400Z,20
2018-10-12T10:37:22.832Z,20
2018-10-12T10:38:32.260Z,24
2018-10-12T10:39:41.443Z,20
2018-10-12T10:40:50.869Z,20
2018-10-12T10:42:00.306Z,20
2018-10-12T10:43:09.477Z,20
2018-10-12T10:44:18.913Z,24
2018-10-12T10:45:28.599Z,20
2018-10-12T10:46:38.306Z,24
2018-10-12T10:47:48.027Z,20
2018-10-12T10:48:57.458Z,24
2018-10-12T10:50:07.163Z,20
2018-10-12T10:51:16.616Z,24
2018-10-12T10:52:26.069Z,24
2018-10-12T10:53:36.297Z,24
2018-10-12T10:54:46.116Z,20
2018-10-12T10:55:55.804Z,20
2018-10-12T10:57:05.503Z,24
2018-10-12T10:58:15.231Z,24
2018-10-12T10:59:24.700Z,24
2018-10-12T11:00:34.049Z,24
2018-10-12T11:01:43.239Z,24
2018-10-12T11:02:52.432Z,20
2018-10-12T11:04:02.127Z,20
2018-10-12T11:05:11.559Z,20
2018-10-12T11:06:21.112Z,20
2018-10-12T11:07:31.068Z,24
2018-10-12T11:08:40.707Z,24
2018-10-12T11:09:50.123Z,24
2018-10-12T11:10:59.304Z,24
2018-10-12T11:12:09.183Z,20
2018-10-12T11:13:19.429Z,20
2018-10-12T11:14:29.015Z,20
2018-10-12T11:15:38.452Z,20
2018-10-12T11:16:47.348Z,20
2018-10-12T11:17:56.526Z,16
2018-10-12T11:19:06.205Z,20
2018-10-12T11:20:15.657Z,20
2018-10-12T11:21:25.139Z,20
2018-10-12T11:22:34.323Z,20
2018-10-12T11:23:43.746Z,16
2018-10-12T11:24:53.457Z,16
2018-10-12T11:26:02.964Z,20
2018-10-12T11:27:12.400Z,20
2018-10-12T11:28:22.090Z,20
2018-10-12T11:29:31.287Z,20
2018-10-12T11:30:40.856Z,16
2018-10-12T11:31:50.048Z,16
2018-10-12T11:33:00.516Z,16
2018-10-12T11:34:10.291Z,16
2018-10-12T11:35:19.730Z,20
2018-10-12T11:36:28.976Z,16
2018-10-12T11:37:38.419Z,12
2018-10-12T11:38:48.115Z,12
2018-10-12T11:39:57.803Z,20
2018-10-12T11:41:07.268Z,20
2018-10-12T11:42:16.505Z,20
2018-10-12T11:43:25.928Z,20
2018-10-12T11:44:35.366Z,20
2018-10-12T11:45:45.052Z,24
2018-10-12T11:46:54.774Z,24
2018-10-12T11:48:03.952Z,24
2018-10-12T11:49:13.372Z,28
2018-10-12T11:50:23.047Z,24
2018-10-12T11:51:32.740Z,24
2018-10-12T11:52:42.416Z,28
2018-10-12T11:53:51.626Z,28
2018-10-12T11:55:01.047Z,28
2018-10-12T11:56:10.501Z,28
2018-10-12T11:57:19.955Z,28
2018-10-12T11:58:29.142Z,28
2018-10-12T11:59:38.572Z,28
2018-10-12T12:00:47.793Z,28
2018-10-12T12:01:57.471Z,28
2018-10-12T12:03:06.653Z,28
2018-10-12T12:04:15.868Z,32
2018-10-12T12:05:25.304Z,28
2018-10-12T12:06:34.765Z,32
2018-10-12T12:07:44.217Z,32
2018-10-12T12:08:53.440Z,28
2018-10-12T12:10:03.077Z,28
2018-10-12T12:11:12.773Z,24
2018-10-12T12:12:22.486Z,24
2018-10-12T12:13:32.410Z,24
2018-10-12T12:14:41.915Z,28
2018-10-12T12:15:51.871Z,28
2018-10-12T12:17:01.342Z,28
2018-10-12T12:18:10.518Z,24
2018-10-12T12:19:20.181Z,24
2018-10-12T12:20:29.925Z,20
2018-10-12T12:21:39.403Z,24
2018-10-12T12:22:48.850Z,24
2018-10-12T12:23:57.793Z,24
2018-10-12T12:25:07.479Z,20
2018-10-12T12:26:16.892Z,20
2018-10-12T12:27:26.331Z,20
2018-10-12T12:28:35.924Z,24
2018-10-12T12:29:45.384Z,20
2018-10-12T12:30:54.818Z,20
2018-10-12T12:32:04.239Z,20
2018-10-12T12:33:13.703Z,20
2018-10-12T12:34:22.875Z,20
2018-10-12T12:35:33.876Z,20
2018-10-12T12:36:43.787Z,24
2018-10-12T12:37:53.480Z,24
2018-10-12T12:39:03.155Z,24
2018-10-12T12:40:12.331Z,24
2018-10-12T12:41:21.502Z,28
2018-10-12T12:42:31.217Z,28
2018-10-12T12:43:40.646Z,24
2018-10-12T12:44:49.803Z,24
2018-10-12T12:45:59.233Z,28
2018-10-12T12:47:09.106Z,28
2018-10-12T12:48:19.890Z,28
2018-10-12T12:49:31.580Z,28
2018-10-12T12:50:40.931Z,28
2018-10-12T12:51:50.097Z,28
2018-10-12T12:52:59.531Z,32
2018-10-12T12:54:08.724Z,36
2018-10-12T12:55:18.152Z,40
2018-10-12T12:56:27.852Z,48
2018-10-12T12:57:37.555Z,44
2018-10-12T12:58:47.510Z,40
2018-10-12T12:59:56.441Z,44
2018-10-12T13:01:05.883Z,44
2018-10-12T13:02:15.564Z,52
2018-10-12T13:03:24.991Z,52
2018-10-12T13:04:34.446Z,52
2018-10-12T13:05:43.865Z,52
2018-10-12T13:06:53.066Z,48
2018-10-12T13:08:02.507Z,52
2018-10-12T13:09:12.460Z,52
2018-10-12T13:10:22.412Z,56
2018-10-12T13:11:32.107Z,56
2018-10-12T13:12:41.572Z,56
2018-10-12T13:13:51.560Z,60
2018-10-12T13:15:01.006Z,56
2018-10-12T13:16:10.454Z,60
2018-10-12T13:17:19.351Z,64
2018-10-12T13:18:28.572Z,64
2018-10-12T13:19:37.832Z,64
2018-10-12T13:20:47.022Z,64
2018-10-12T13:21:56.465Z,68
2018-10-12T13:23:05.897Z,72
2018-10-12T13:24:16.177Z,68
2018-10-12T13:25:25.626Z,76
2018-10-12T13:26:35.081Z,72
2018-10-12T13:27:44.015Z,68
2018-10-12T13:28:53.205Z,64
2018-10-12T13:30:02.394Z,72
2018-10-12T13:31:12.100Z,68
2018-10-12T13:32:21.526Z,76
2018-10-12T13:33:30.499Z,80
2018-10-12T13:34:39.977Z,80
2018-10-12T13:35:49.704Z,76
2018-10-12T13:36:58.959Z,76
2018-10-12T13:38:07.903Z,76
2018-10-12T13:39:17.574Z,72
2018-10-12T13:40:27.518Z,72
2018-10-12T13:41:36.961Z,76
2018-10-12T13:42:46.660Z,80
2018-10-12T13:43:56.345Z,80
2018-10-12T13:45:06.047Z,84
2018-10-12T13:46:14.962Z,92
2018-10-12T13:47:24.683Z,92
2018-10-12T13:48:34.126Z,88
2018-10-12T13:49:43.553Z,84
2018-10-12T13:50:52.474Z,80
2018-10-12T13:52:02.239Z,72
2018-10-12T13:53:11.691Z,68
2018-10-12T13:54:21.122Z,64
2018-10-12T13:55:30.386Z,72
2018-10-12T13:56:39.644Z,64
2018-10-12T13:57:49.089Z,64
2018-10-12T13:58:58.526Z,56
2018-10-12T14:00:08.035Z,48
2018-10-12T14:01:17.315Z,40
2018-10-12T14:02:26.767Z,36
2018-10-12T14:03:35.960Z,24
2018-10-12T14:04:44.631Z,20
2018-10-12T14:05:54.224Z,16
2018-10-12T14:07:04.170Z,8
2018-10-12T14:08:14.089Z,8
2018-10-12T14:09:23.964Z,12
2018-10-12T14:10:33.665Z,8
2018-10-12T14:11:42.846Z,8
2018-10-12T14:12:52.536Z,8
2018-10-12T14:14:01.999Z,8
2018-10-12T14:15:11.697Z,8
2018-10-12T14:16:21.659Z,8
2018-10-12T14:17:31.099Z,8
2018-10-12T14:18:41.481Z,8
2018-10-12T14:19:51.158Z,8
2018-10-12T14:21:00.879Z,8
2018-10-12T14:22:10.602Z,8
2018-10-12T14:23:19.786Z,8
2018-10-12T14:24:29.215Z,8
2018-10-12T14:25:38.674Z,8
2018-10-12T14:26:48.257Z,8
2018-10-12T14:27:58.071Z,4
2018-10-12T14:29:07.246Z,8
2018-10-12T14:30:17.004Z,4
2018-10-12T14:31:26.610Z,8
2018-10-12T14:32:35.799Z,8
2018-10-12T14:33:45.245Z,8
2018-10-12T14:34:54.736Z,8
2018-10-12T14:36:04.311Z,4
2018-10-12T14:37:13.492Z,4
2018-10-12T14:38:22.422Z,4
2018-10-12T14:39:31.867Z,4
2018-10-12T14:40:40.802Z,4
2018-10-12T14:41:50.219Z,4
2018-10-12T14:42:59.941Z,4
2018-10-12T14:44:10.867Z,4
2018-10-12T14:45:20.763Z,8
2018-10-12T14:46:29.671Z,8
2018-10-12T14:47:39.380Z,8
2018-10-12T14:48:48.549Z,8
2018-10-12T14:49:58.265Z,8
2018-10-12T14:51:08.212Z,8
2018-10-12T14:52:17.708Z,8
2018-10-12T14:53:27.747Z,8
2018-10-12T14:54:37.192Z,8
2018-10-12T14:55:47.151Z,8
2018-10-12T14:56:56.852Z,8
2018-10-12T14:58:06.274Z,4
2018-10-12T14:59:16.422Z,4
2018-10-12T15:00:26.319Z,4
2018-10-12T15:01:35.786Z,4
2018-10-12T15:02:45.482Z,8
2018-10-12T15:03:54.671Z,8
2018-10-12T15:05:04.121Z,4
2018-10-12T15:06:13.300Z,4
2018-10-12T15:07:22.787Z,4
2018-10-12T15:08:31.457Z,4
2018-10-12T15:09:41.120Z,4
2018-10-12T15:10:50.926Z,4
2018-10-12T15:11:59.904Z,8
2018-10-12T15:13:09.339Z,8
2018-10-12T15:14:18.760Z,8
2018-10-12T15:15:27.989Z,8
2018-10-12T15:16:36.930Z,8
2018-10-12T15:17:46.669Z,8
2018-10-12T15:18:55.863Z,4
2018-10-12T15:20:05.592Z,4
2018-10-12T15:21:16.188Z,4
2018-10-12T15:22:24.941Z,4
2018-10-12T15:23:34.370Z,4
2018-10-12T15:24:43.886Z,4
2018-10-12T15:25:53.492Z,4
2018-10-12T15:27:03.201Z,4
2018-10-12T15:28:12.368Z,4
2018-10-12T15:29:21.561Z,4
2018-10-12T15:30:31.257Z,4
2018-10-12T15:31:40.743Z,4
2018-10-12T15:32:50.176Z,4
2018-10-12T15:33:59.121Z,4
2018-10-12T15:35:08.820Z,4
2018-10-12T15:36:18.764Z,4
2018-10-12T15:37:28.921Z,4
2018-10-12T15:38:38.959Z,4
2018-10-12T15:39:48.542Z,4
2018-10-12T15:40:57.986Z,4
2018-10-12T15:42:07.417Z,4
2018-10-12T15:43:17.391Z,0
2018-10-12T15:44:27.315Z,0
2018-10-12T15:45:36.775Z,0
2018-10-12T15:46:46.561Z,4
2018-10-12T15:47:56.028Z,4
2018-10-12T15:49:05.664Z,4
2018-10-12T15:50:15.342Z,4
2018-10-12T15:51:24.896Z,4
2018-10-12T15:52:34.353Z,4
2018-10-12T15:53:43.595Z,4
2018-10-12T15:54:53.025Z,4
2018-10-12T15:56:02.577Z,4
2018-10-12T15:57:12.179Z,0
2018-10-12T15:58:21.110Z,0
2018-10-12T15:59:30.797Z,0
2018-10-12T16:00:40.246Z,0
2018-10-12T16:01:49.409Z,0
2018-10-12T16:02:58.836Z,0
2018-10-12T16:04:08.298Z,0
2018-10-12T16:05:18.036Z,0
2018-10-12T16:06:27.945Z,0
2018-10-12T16:07:37.688Z,0
2018-10-12T16:08:46.924Z,0
2018-10-12T16:09:56.671Z,0
2018-10-12T16:11:06.087Z,0
2018-10-12T16:12:15.531Z,0
2018-10-12T16:13:24.695Z,0
2018-10-12T16:14:34.465Z,0
2018-10-12T16:15:43.698Z,0
2018-10-12T16:16:53.379Z,0
2018-10-12T16:18:02.542Z,0
2018-10-12T16:19:12.267Z,0
2018-10-12T16:20:21.194Z,0
2018-10-12T16:21:30.356Z,0
2018-10-12T16:22:40.442Z,0
2018-10-12T16:23:50.423Z,0
2018-10-12T16:25:00.401Z,0
2018-10-12T16:26:09.603Z,0
2018-10-12T16:27:19.321Z,0
2018-10-12T16:28:29.041Z,0
2018-10-12T16:29:37.980Z,0
2018-10-12T16:30:47.435Z,0
2018-10-12T16:31:57.155Z,0
2018-10-12T16:33:06.599Z,0
2018-10-12T16:34:16.309Z,0
2018-10-12T16:35:25.517Z,0
2018-10-12T16:36:35.045Z,0
2018-10-12T16:37:44.855Z,0
2018-10-12T16:38:54.805Z,0
2018-10-12T16:40:04.255Z,0
2018-10-12T16:41:14.049Z,0
2018-10-12T16:42:23.569Z,0
2018-10-12T16:43:33.271Z,0
2018-10-12T16:44:42.703Z,0
2018-10-12T16:45:52.644Z,0
2018-10-12T16:47:02.073Z,0
2018-10-12T16:48:11.548Z,0
2018-10-12T16:49:20.743Z,0
2018-10-12T16:50:29.945Z,0
2018-10-12T16:51:39.143Z,0
2018-10-12T16:52:48.924Z,0
2018-10-12T16:53:58.351Z,0
2018-10-12T16:55:07.815Z,0
2018-10-12T16:56:17.250Z,0
2018-10-12T16:57:26.682Z,0